createdAt,value
2023-03-31T00:47:30.278Z,49.36
2023-03-31T00:56:41.998Z,49.26
2023-03-31T00:59:33.840Z,49.24
2023-03-31T01:39:05.806Z,49.66
2023-03-31T01:41:47.614Z,49.55
2023-03-31T01:44:40.072Z,49.58
2023-03-31T02:10:02.330Z,49.58
2023-03-31T02:12:33.359Z,49.94
2023-03-31T03:51:36.062Z,45.99
2023-03-31T03:54:05.038Z,46.37
2023-03-31T03:56:34.848Z,46.44
2023-03-31T04:00:05.587Z,46.18
2023-03-31T04:02:47.715Z,44.52
2023-03-31T04:05:25.544Z,45.57
2023-03-31T04:08:44.687Z,44.52
2023-03-31T04:11:20.298Z,43.12
2023-03-31T04:14:10.147Z,43.43
2023-03-31T04:16:47.270Z,42.14
2023-03-31T04:19:22.088Z,42.44
2023-03-31T04:21:58.965Z,41.80
2023-03-31T04:24:31.000Z,42.48
2023-03-31T04:27:05.143Z,42.12
2023-03-31T04:29:37.688Z,40.95
2023-03-31T04:32:06.700Z,38.91
2023-03-31T04:34:35.906Z,37.36
2023-03-31T04:37:04.846Z,37.70
2023-03-31T04:39:34.111Z,36.61
2023-03-31T04:42:02.888Z,37.87
2023-03-31T04:44:32.031Z,36.99
2023-03-31T04:47:05.384Z,36.09
2023-03-31T04:49:37.068Z,35.50
2023-03-31T04:52:06.412Z,35.46
2023-03-31T04:54:35.748Z,36.22
2023-03-31T04:57:05.553Z,35.10
2023-03-31T04:59:34.332Z,34.57
2023-03-31T05:02:05.021Z,33.77
2023-03-31T05:04:33.999Z,31.32
2023-03-31T05:07:02.661Z,33.01
2023-03-31T05:09:32.625Z,31.96
2023-03-31T05:12:02.313Z,31.84
2023-03-31T05:14:31.285Z,30.22
2023-03-31T05:16:59.925Z,30.32
2023-03-31T05:19:29.640Z,30.52
2023-03-31T05:21:58.287Z,28.83
2023-03-31T05:24:28.600Z,29.52
2023-03-31T05:26:57.921Z,29.14
2023-03-31T05:29:26.803Z,28.68
2023-03-31T05:31:56.101Z,28.40
2023-03-31T05:34:24.795Z,28.55
2023-03-31T05:36:54.434Z,28.61
2023-03-31T05:39:23.210Z,28.46
2023-03-31T05:41:52.520Z,27.19
2023-03-31T05:44:21.460Z,27.15
2023-03-31T05:46:51.546Z,27.62
2023-03-31T05:49:21.000Z,26.24
2023-03-31T05:51:50.691Z,26.26
2023-03-31T05:54:19.382Z,26.32
2023-03-31T05:56:48.162Z,26.29
2023-03-31T05:59:17.223Z,26.40
2023-03-31T06:01:49.165Z,25.95
2023-03-31T06:04:18.411Z,25.51
2023-03-31T06:06:50.582Z,25.49
2023-03-31T06:09:21.580Z,25.27
2023-03-31T06:11:53.664Z,24.92
2023-03-31T06:14:22.581Z,24.29
2023-03-31T06:16:51.196Z,24.19
2023-03-31T06:19:21.063Z,22.86
2023-03-31T06:21:50.077Z,23.15
2023-03-31T06:24:18.860Z,23.03
2023-03-31T06:26:48.137Z,23.19
2023-03-31T06:29:16.705Z,22.62
2023-03-31T06:31:46.404Z,21.83
2023-03-31T06:34:15.487Z,22.40
2023-03-31T06:36:44.385Z,22.41
2023-03-31T06:39:12.941Z,22.19
2023-03-31T06:41:41.705Z,21.66
2023-03-31T06:44:10.752Z,21.83
2023-03-31T06:46:41.162Z,20.74
2023-03-31T06:49:09.950Z,20.90
2023-03-31T06:51:39.605Z,22.04
2023-03-31T06:54:08.465Z,21.20
2023-03-31T06:56:38.178Z,21.15
2023-03-31T06:59:06.718Z,20.49
2023-03-31T07:01:37.750Z,20.35
2023-03-31T07:04:08.334Z,20.17
2023-03-31T07:06:37.401Z,20.17
2023-03-31T07:09:05.972Z,20.14
2023-03-31T07:11:38.912Z,19.59
2023-03-31T07:14:07.964Z,19.27
2023-03-31T07:16:36.907Z,19.12
2023-03-31T07:19:06.423Z,18.99
2023-03-31T07:21:36.083Z,19.19
2023-03-31T07:24:04.878Z,19.35
2023-03-31T07:26:33.949Z,18.90
2023-03-31T07:29:02.898Z,18.35
2023-03-31T07:31:38.246Z,17.98
2023-03-31T07:34:07.419Z,18.24
2023-03-31T07:36:35.986Z,17.45
2023-03-31T07:39:06.430Z,17.42
2023-03-31T07:41:35.194Z,17.15
2023-03-31T07:44:04.339Z,16.75
2023-03-31T07:46:33.638Z,16.36
2023-03-31T07:49:03.542Z,16.35
2023-03-31T07:51:32.138Z,16.48
2023-03-31T07:54:01.009Z,16.54
2023-03-31T07:56:33.497Z,16.72
2023-03-31T07:59:02.705Z,17.21
2023-03-31T08:01:31.550Z,17.46
2023-03-31T08:04:01.242Z,17.57
2023-03-31T08:06:30.703Z,17.28
2023-03-31T08:08:59.564Z,17.16
2023-03-31T08:11:28.698Z,16.96
2023-03-31T08:13:57.381Z,17.07
2023-03-31T08:16:26.150Z,17.20
2023-03-31T08:18:54.732Z,17.24
2023-03-31T08:21:24.530Z,17.53
2023-03-31T08:24:01.439Z,17.74
2023-03-31T08:26:32.132Z,18.15
2023-03-31T08:29:00.865Z,18.23
2023-03-31T08:31:30.806Z,18.36
2023-03-31T08:33:59.768Z,18.61
2023-03-31T08:36:29.917Z,18.79
2023-03-31T08:38:58.671Z,19.53
2023-03-31T08:41:52.315Z,20.12
2023-03-31T08:44:32.298Z,20.73
2023-03-31T08:47:02.490Z,21.02
2023-03-31T08:49:39.619Z,21.39
2023-03-31T08:52:14.824Z,21.46
2023-03-31T08:54:49.798Z,21.80
2023-03-31T08:57:22.034Z,22.09
2023-03-31T08:59:51.366Z,22.20
2023-03-31T09:02:32.709Z,22.89
2023-03-31T09:05:41.188Z,23.27
2023-03-31T09:08:39.988Z,23.55
2023-03-31T09:11:12.189Z,23.54
2023-03-31T09:14:07.079Z,23.84
2023-03-31T09:16:35.809Z,24.11
2023-03-31T09:19:15.134Z,24.27
2023-03-31T09:21:46.061Z,24.47
2023-03-31T09:24:17.653Z,24.65
2023-03-31T09:27:12.677Z,24.89
2023-03-31T09:29:56.008Z,24.73
2023-03-31T09:32:31.614Z,25.08
2023-03-31T09:35:25.859Z,25.19
2023-03-31T09:37:54.751Z,25.26
2023-03-31T09:40:25.045Z,25.38
2023-03-31T09:43:02.085Z,25.79
2023-03-31T09:45:31.255Z,25.46
2023-03-31T09:48:07.983Z,25.70
2023-03-31T09:50:40.133Z,26.00
2023-03-31T09:53:13.275Z,26.06
2023-03-31T09:55:43.962Z,26.60
2023-03-31T09:58:14.396Z,26.75
2023-03-31T10:00:44.749Z,26.43
2023-03-31T10:03:14.132Z,26.52
2023-03-31T10:05:51.236Z,26.52
2023-03-31T10:08:28.190Z,26.42
2023-03-31T10:11:04.008Z,26.52
2023-03-31T10:13:43.805Z,26.65
2023-03-31T10:16:14.401Z,26.92
2023-03-31T10:18:43.756Z,26.72
2023-03-31T10:21:36.770Z,26.51
2023-03-31T10:24:10.737Z,26.76
2023-03-31T10:26:40.044Z,26.80
2023-03-31T10:29:13.161Z,26.68
2023-03-31T10:31:41.844Z,27.06
2023-03-31T10:34:15.730Z,27.38
2023-03-31T10:36:50.265Z,27.61
2023-03-31T10:39:19.341Z,27.50
2023-03-31T10:41:52.177Z,27.00
2023-03-31T10:44:34.122Z,27.44
2023-03-31T10:47:06.408Z,27.56
2023-03-31T10:49:39.890Z,27.23
2023-03-31T10:52:20.063Z,27.31
2023-03-31T10:54:50.311Z,27.16
2023-03-31T10:57:19.292Z,27.23
2023-03-31T11:00:16.287Z,27.28
2023-03-31T11:03:02.976Z,27.27
2023-03-31T11:05:52.127Z,27.14
2023-03-31T11:08:41.437Z,27.29
2023-03-31T11:11:25.321Z,27.10
2023-03-31T11:14:06.328Z,26.85
2023-03-31T11:16:47.397Z,27.05
2023-03-31T11:19:39.908Z,27.36
2023-03-31T11:22:21.999Z,27.49
2023-03-31T11:24:53.868Z,27.54
2023-03-31T11:27:38.710Z,27.68
2023-03-31T11:30:22.729Z,27.79
2023-03-31T11:33:10.817Z,27.45
2023-03-31T11:36:12.188Z,27.50
2023-03-31T11:38:47.719Z,27.73
2023-03-31T11:41:19.925Z,27.70
2023-03-31T11:44:05.672Z,27.62
2023-03-31T11:46:49.021Z,27.81
2023-03-31T11:49:32.417Z,27.97
2023-03-31T11:52:50.316Z,27.99
2023-03-31T11:55:21.994Z,27.67
2023-03-31T11:58:05.836Z,27.98
2023-03-31T12:00:54.086Z,28.05
2023-03-31T12:03:24.616Z,28.14
2023-03-31T12:05:59.175Z,27.85
2023-03-31T12:08:40.830Z,27.78
2023-03-31T12:11:31.799Z,27.82
2023-03-31T12:14:12.224Z,27.89
2023-03-31T12:16:46.210Z,27.59
2023-03-31T12:19:17.096Z,27.58
2023-03-31T12:21:51.165Z,27.90
2023-03-31T12:24:19.777Z,27.60
2023-03-31T12:26:57.901Z,27.29
2023-03-31T12:29:59.884Z,27.48
2023-03-31T12:32:40.236Z,27.68
2023-03-31T12:35:15.745Z,27.29
2023-03-31T12:38:08.509Z,26.56
2023-03-31T12:40:40.425Z,25.89
2023-03-31T12:43:31.287Z,25.86
2023-03-31T12:46:25.809Z,26.00
2023-03-31T12:49:04.470Z,26.20
2023-03-31T12:51:51.227Z,26.42
2023-03-31T12:54:58.874Z,26.48
2023-03-31T12:57:27.669Z,26.40
2023-03-31T13:00:12.783Z,26.39
2023-03-31T13:02:42.508Z,26.30
2023-03-31T13:05:39.198Z,25.46
2023-03-31T13:08:08.658Z,25.63
2023-03-31T13:10:55.244Z,24.56
2023-03-31T13:13:23.841Z,23.28
2023-03-31T13:15:56.719Z,23.21
2023-03-31T13:18:28.089Z,23.25
2023-03-31T13:21:06.636Z,23.16
2023-03-31T13:23:36.277Z,23.20
2023-03-31T13:26:06.151Z,23.49
2023-03-31T13:28:42.664Z,23.47
2023-03-31T13:31:12.584Z,23.49
2023-03-31T13:33:46.023Z,23.62
2023-03-31T13:36:35.244Z,23.58
2023-03-31T13:39:28.257Z,23.98
2023-03-31T13:42:06.809Z,23.72
2023-03-31T13:45:09.147Z,23.89
2023-03-31T13:47:57.663Z,24.07
2023-03-31T13:50:52.431Z,24.26
2023-03-31T13:53:52.354Z,24.37
2023-03-31T13:57:02.065Z,24.19
2023-03-31T13:59:59.160Z,24.63
2023-03-31T14:02:33.912Z,24.36
2023-03-31T14:05:28.134Z,24.60
2023-03-31T14:07:58.389Z,24.83
2023-03-31T14:10:34.946Z,25.13
2023-03-31T14:13:07.610Z,25.69
2023-03-31T14:15:42.898Z,26.21
2023-03-31T14:18:14.670Z,26.63
2023-03-31T14:20:48.668Z,26.87
2023-03-31T14:23:21.537Z,27.13
2023-03-31T14:25:52.563Z,27.36
2023-03-31T14:28:31.564Z,27.68
2023-03-31T14:31:57.493Z,27.84
2023-03-31T14:34:49.500Z,28.47
2023-03-31T14:37:23.914Z,28.96
2023-03-31T14:39:55.127Z,29.58
2023-03-31T14:42:27.466Z,29.90
2023-03-31T14:44:57.465Z,30.09
2023-03-31T14:47:29.424Z,29.98
2023-03-31T14:50:32.891Z,30.07
2023-03-31T14:53:02.636Z,30.08
2023-03-31T14:55:44.055Z,29.72
2023-03-31T14:58:27.594Z,29.85
2023-03-31T15:00:56.316Z,30.05
2023-03-31T15:03:27.963Z,29.88
2023-03-31T15:06:00.094Z,30.05
2023-03-31T15:08:29.886Z,30.24
2023-03-31T15:11:11.810Z,30.16
2023-03-31T15:14:03.474Z,30.28
2023-03-31T15:16:43.318Z,30.38
2023-03-31T15:19:21.089Z,30.43
2023-03-31T15:22:05.943Z,30.62
2023-03-31T15:24:34.686Z,30.85
2023-03-31T15:27:15.010Z,31.34
2023-03-31T15:29:57.472Z,31.66
2023-03-31T15:32:29.186Z,31.37
2023-03-31T15:35:04.745Z,31.30
2023-03-31T15:37:41.247Z,31.58
2023-03-31T15:40:22.759Z,31.72
2023-03-31T15:43:06.317Z,31.59
2023-03-31T15:45:47.948Z,31.53
2023-03-31T15:48:33.807Z,31.48
2023-03-31T15:51:04.342Z,31.63
2023-03-31T15:53:39.670Z,31.66
2023-03-31T15:56:34.860Z,31.81
2023-03-31T15:59:25.151Z,32.05
2023-03-31T16:01:57.717Z,32.38
2023-03-31T16:04:31.349Z,32.61
2023-03-31T16:07:05.766Z,32.53
2023-03-31T16:09:51.692Z,32.58
2023-03-31T16:12:29.847Z,33.06
2023-03-31T16:14:59.600Z,33.62
2023-03-31T16:17:31.761Z,34.39
2023-03-31T16:20:09.032Z,34.24
2023-03-31T16:22:43.926Z,34.66
2023-03-31T16:25:17.261Z,34.84
2023-03-31T16:27:53.162Z,35.36
2023-03-31T16:30:34.517Z,35.21
2023-03-31T16:33:04.514Z,35.80
2023-03-31T16:35:35.432Z,35.60
2023-03-31T16:38:05.103Z,35.60
2023-03-31T16:40:42.339Z,35.66
2023-03-31T16:43:17.950Z,35.61
2023-03-31T16:45:49.280Z,36.04
2023-03-31T16:48:20.000Z,36.22
2023-03-31T16:50:51.819Z,36.17
2023-03-31T16:53:24.666Z,36.23
2023-03-31T16:55:53.811Z,36.28
2023-03-31T16:58:24.842Z,36.26
2023-03-31T17:00:54.225Z,36.01
2023-03-31T17:03:28.030Z,35.91
2023-03-31T17:05:59.280Z,35.73
2023-03-31T17:08:31.597Z,35.64
2023-03-31T17:11:05.590Z,35.52
2023-03-31T17:13:34.531Z,35.44
2023-03-31T17:16:13.107Z,35.48
2023-03-31T17:18:46.282Z,35.78
2023-03-31T17:21:16.203Z,35.95
2023-03-31T17:23:49.944Z,36.04
2023-03-31T17:26:18.766Z,36.18
2023-03-31T17:28:47.622Z,36.16
2023-03-31T17:31:20.667Z,36.26
2023-03-31T17:33:49.231Z,36.48
2023-03-31T17:36:22.512Z,36.51
2023-03-31T17:38:51.356Z,36.73
2023-03-31T17:41:20.020Z,36.91
2023-03-31T17:43:50.443Z,37.11
2023-03-31T17:46:19.230Z,37.14
2023-03-31T17:48:48.820Z,37.25
2023-03-31T17:51:18.494Z,37.14
2023-03-31T17:53:55.001Z,37.43
2023-03-31T17:56:24.357Z,37.40
2023-03-31T17:58:52.991Z,37.64
2023-03-31T18:01:21.941Z,37.83
2023-03-31T18:03:51.309Z,37.99
2023-03-31T18:06:19.642Z,38.11
2023-03-31T18:08:48.235Z,38.30
2023-03-31T18:11:17.480Z,38.30
2023-03-31T18:13:54.214Z,38.38
2023-03-31T18:16:23.911Z,38.82
2023-03-31T18:18:52.595Z,38.47
2023-03-31T18:21:27.411Z,38.81
2023-03-31T18:23:57.267Z,38.68
2023-03-31T18:26:29.952Z,38.92
2023-03-31T18:28:59.388Z,39.13
2023-03-31T18:31:28.567Z,39.64
2023-03-31T18:33:58.266Z,39.36
2023-03-31T18:36:28.608Z,39.23
2023-03-31T18:38:57.589Z,39.40
2023-03-31T18:41:30.060Z,39.54
2023-03-31T18:43:59.269Z,39.96
2023-03-31T18:46:30.621Z,40.01
2023-03-31T18:48:59.799Z,39.89
2023-03-31T18:51:28.898Z,39.93
2023-03-31T18:53:57.590Z,40.08
2023-03-31T18:56:27.196Z,39.85
2023-03-31T18:58:56.739Z,40.39
2023-03-31T19:01:26.617Z,40.27
2023-03-31T19:03:56.151Z,39.94
2023-03-31T19:06:26.362Z,40.40
2023-03-31T19:08:56.851Z,40.65
2023-03-31T19:11:25.773Z,41.01
2023-03-31T19:13:55.720Z,40.94
2023-03-31T19:16:45.192Z,41.29
2023-03-31T19:19:13.904Z,41.63
2023-03-31T19:21:43.132Z,41.92
2023-03-31T19:24:12.146Z,42.13
2023-03-31T19:26:42.246Z,42.93
2023-03-31T19:29:11.321Z,43.00
2023-03-31T19:31:41.685Z,42.98
2023-03-31T19:34:13.151Z,43.27
2023-03-31T19:36:41.770Z,43.59
2023-03-31T19:39:11.782Z,44.06
2023-03-31T19:41:41.296Z,44.22
2023-03-31T19:44:09.861Z,43.84
2023-03-31T19:46:38.615Z,44.80
2023-03-31T19:49:07.592Z,44.73
2023-03-31T19:51:36.814Z,44.68
2023-03-31T19:54:06.302Z,45.59
2023-03-31T19:56:38.670Z,45.62
2023-03-31T19:59:08.446Z,45.63
2023-03-31T20:01:37.785Z,45.51
2023-03-31T20:04:10.956Z,45.62
2023-03-31T20:06:40.019Z,46.41
2023-03-31T20:09:08.982Z,46.61
2023-03-31T20:11:40.185Z,46.52
2023-03-31T20:14:10.942Z,47.03
2023-03-31T20:16:39.652Z,47.32
2023-03-31T20:19:08.989Z,47.17
2023-03-31T20:21:39.203Z,46.94
2023-03-31T20:24:08.070Z,47.58
2023-03-31T20:26:38.685Z,48.14
2023-03-31T20:29:07.385Z,48.32
2023-03-31T20:31:37.873Z,47.99
2023-03-31T20:34:12.404Z,48.24
2023-03-31T20:36:49.524Z,48.41
2023-03-31T20:39:18.750Z,48.57
2023-03-31T20:41:48.329Z,48.21
2023-03-31T20:44:17.661Z,48.30
2023-03-31T20:46:48.745Z,48.28
2023-03-31T20:49:18.510Z,48.16
2023-03-31T20:51:47.829Z,48.17
2023-03-31T20:54:16.550Z,48.48
2023-03-31T20:56:45.723Z,48.83
2023-03-31T20:59:15.472Z,48.84
2023-03-31T21:01:45.566Z,49.27
2023-03-31T21:04:17.228Z,49.08
2023-03-31T21:06:47.346Z,49.09
2023-03-31T21:09:16.663Z,49.22
2023-03-31T21:11:47.721Z,49.37
2023-03-31T21:14:16.820Z,49.55
2023-03-31T21:16:45.872Z,50.15
2023-03-31T21:19:14.866Z,50.37
2023-03-31T21:21:43.529Z,50.83
2023-03-31T21:24:12.782Z,50.89
2023-03-31T21:26:42.239Z,50.78
2023-03-31T21:29:12.771Z,51.42
2023-03-31T21:31:42.358Z,50.75
2023-03-31T21:34:12.180Z,51.10
2023-03-31T21:36:40.811Z,51.08
2023-03-31T21:39:10.015Z,50.94
2023-03-31T21:41:40.719Z,51.06
2023-03-31T21:44:10.155Z,52.20
2023-03-31T21:46:39.508Z,52.06
2023-03-31T21:49:08.427Z,51.55
2023-03-31T21:51:37.173Z,51.50
2023-03-31T21:54:07.040Z,51.49
2023-03-31T21:56:35.856Z,51.49
2023-03-31T21:59:04.572Z,51.31
2023-03-31T22:01:33.144Z,51.80
2023-03-31T22:04:02.407Z,51.94
2023-03-31T22:06:31.148Z,51.63
2023-03-31T22:08:59.590Z,51.73
2023-03-31T22:11:31.442Z,52.26
2023-03-31T22:14:00.815Z,52.73
2023-03-31T22:16:29.845Z,52.71
2023-03-31T22:18:59.558Z,52.89
2023-03-31T22:21:43.839Z,52.95
2023-03-31T22:24:13.944Z,52.59
2023-03-31T22:26:43.298Z,52.96
2023-03-31T22:29:15.165Z,53.37
2023-03-31T22:31:45.140Z,53.71
2023-03-31T22:34:15.710Z,53.71
2023-03-31T22:36:44.904Z,53.52
2023-03-31T22:39:14.727Z,53.75
2023-03-31T22:41:43.824Z,53.66
2023-03-31T22:44:12.150Z,52.98
2023-03-31T22:46:41.857Z,52.35
2023-03-31T22:49:10.398Z,52.97
2023-03-31T22:51:40.943Z,53.23
2023-03-31T22:54:13.183Z,53.90
2023-03-31T22:56:43.207Z,53.27
2023-03-31T22:59:11.852Z,53.34
2023-03-31T23:01:40.605Z,53.99
2023-03-31T23:04:09.369Z,53.70
2023-03-31T23:06:39.337Z,53.18
2023-03-31T23:09:08.132Z,53.64
2023-03-31T23:11:37.491Z,52.92
2023-03-31T23:14:06.088Z,52.99
2023-03-31T23:16:34.636Z,52.87
2023-03-31T23:19:03.906Z,52.84
2023-03-31T23:21:32.868Z,53.00
2023-03-31T23:24:02.366Z,52.90
2023-03-31T23:26:32.515Z,53.22
2023-03-31T23:29:01.309Z,53.02
2023-03-31T23:31:31.937Z,53.13
2023-03-31T23:34:00.774Z,53.10
2023-03-31T23:36:29.659Z,53.67
2023-03-31T23:39:01.445Z,53.57
2023-03-31T23:41:31.664Z,53.68
2023-03-31T23:44:00.259Z,53.08
2023-03-31T23:46:30.020Z,52.85
2023-03-31T23:48:58.972Z,53.35
2023-03-31T23:51:27.747Z,53.13
2023-03-31T23:53:56.567Z,53.31
2023-03-31T23:56:25.657Z,54.13
2023-03-31T23:58:55.721Z,53.31
